sensor_id;sensor_type;location;lat;lon;timestamp;temperature;humidity
38582;DHT22;24349;53.720;10.014;2023-06-14T00:01:54;14.30;99.90
38582;DHT22;24349;53.720;10.014;2023-06-14T00:04:20;14.20;99.90
38582;DHT22;24349;53.720;10.014;2023-06-14T00:06:47;14.30;99.90
38582;DHT22;24349;53.720;10.014;2023-06-14T00:09:13;14.20;99.90
38582;DHT22;24349;53.720;10.014;2023-06-14T00:11:42;14.20;99.90
38582;DHT22;24349;53.720;10.014;2023-06-14T00:14:08;14.20;99.90
38582;DHT22;24349;53.720;10.014;2023-06-14T00:16:34;14.10;99.90
38582;DHT22;24349;53.720;10.014;2023-06-14T00:19:03;14.10;99.90
38582;DHT22;24349;53.720;10.014;2023-06-14T00:21:30;14.10;99.90
38582;DHT22;24349;53.720;10.014;2023-06-14T00:23:57;14.10;99.90
38582;DHT22;24349;53.720;10.014;2023-06-14T00:26:22;14.10;99.90
38582;DHT22;24349;53.720;10.014;2023-06-14T00:28:48;14.10;99.90
38582;DHT22;24349;53.720;10.014;2023-06-14T00:31:14;14.20;99.90
38582;DHT22;24349;53.720;10.014;2023-06-14T00:33:40;14.20;99.90
38582;DHT22;24349;53.720;10.014;2023-06-14T00:36:05;14.20;99.90
38582;DHT22;24349;53.720;10.014;2023-06-14T00:38:31;14.10;99.90
38582;DHT22;24349;53.720;10.014;2023-06-14T00:40:57;14.00;99.90
38582;DHT22;24349;53.720;10.014;2023-06-14T00:43:22;14.00;99.90
38582;DHT22;24349;53.720;10.014;2023-06-14T00:45:48;14.00;99.90
38582;DHT22;24349;53.720;10.014;2023-06-14T00:48:15;14.00;99.90
38582;DHT22;24349;53.720;10.014;2023-06-14T00:50:41;13.90;99.90
38582;DHT22;24349;53.720;10.014;2023-06-14T00:53:07;13.90;99.90
38582;DHT22;24349;53.720;10.014;2023-06-14T00:55:33;13.90;99.90
38582;DHT22;24349;53.720;10.014;2023-06-14T00:57:59;13.80;99.90
38582;DHT22;24349;53.720;10.014;2023-06-14T01:00:25;13.70;99.90
38582;DHT22;24349;53.720;10.014;2023-06-14T01:02:51;13.70;99.90
38582;DHT22;24349;53.720;10.014;2023-06-14T01:05:17;13.70;99.90
38582;DHT22;24349;53.720;10.014;2023-06-14T01:11:02;13.60;99.90
38582;DHT22;24349;53.720;10.014;2023-06-14T01:13:35;13.60;99.90
38582;DHT22;24349;53.720;10.014;2023-06-14T01:16:02;13.60;99.90
38582;DHT22;24349;53.720;10.014;2023-06-14T01:18:28;13.70;99.90
38582;DHT22;24349;53.720;10.014;2023-06-14T01:20:55;13.60;99.90
38582;DHT22;24349;53.720;10.014;2023-06-14T01:23:22;13.70;99.90
38582;DHT22;24349;53.720;10.014;2023-06-14T01:25:49;13.70;99.90
38582;DHT22;24349;53.720;10.014;2023-06-14T01:28:19;13.70;99.90
38582;DHT22;24349;53.720;10.014;2023-06-14T01:30:50;13.70;99.90
38582;DHT22;24349;53.720;10.014;2023-06-14T01:33:26;13.70;99.90
38582;DHT22;24349;53.720;10.014;2023-06-14T01:35:53;13.70;99.90
38582;DHT22;24349;53.720;10.014;2023-06-14T01:38:21;13.70;99.90
38582;DHT22;24349;53.720;10.014;2023-06-14T01:40:48;13.70;99.90
38582;DHT22;24349;53.720;10.014;2023-06-14T01:43:15;13.60;99.90
38582;DHT22;24349;53.720;10.014;2023-06-14T01:45:42;13.60;99.90
38582;DHT22;24349;53.720;10.014;2023-06-14T01:48:09;13.60;99.90
38582;DHT22;24349;53.720;10.014;2023-06-14T01:50:35;13.60;99.90
38582;DHT22;24349;53.720;10.014;2023-06-14T01:53:01;13.60;99.90
38582;DHT22;24349;53.720;10.014;2023-06-14T01:55:26;13.50;99.90
38582;DHT22;24349;53.720;10.014;2023-06-14T01:57:53;13.50;99.90
38582;DHT22;24349;53.720;10.014;2023-06-14T02:00:19;13.60;99.90
38582;DHT22;24349;53.720;10.014;2023-06-14T02:02:45;13.50;99.90
38582;DHT22;24349;53.720;10.014;2023-06-14T02:05:11;13.60;99.90
38582;DHT22;24349;53.720;10.014;2023-06-14T02:07:37;13.60;99.90
38582;DHT22;24349;53.720;10.014;2023-06-14T02:10:05;13.60;99.90
38582;DHT22;24349;53.720;10.014;2023-06-14T02:12:31;13.60;99.90
38582;DHT22;24349;53.720;10.014;2023-06-14T02:14:56;13.60;99.90
38582;DHT22;24349;53.720;10.014;2023-06-14T02:17:23;13.50;99.90
38582;DHT22;24349;53.720;10.014;2023-06-14T02:19:50;13.50;99.90
38582;DHT22;24349;53.720;10.014;2023-06-14T02:22:16;13.40;99.90
38582;DHT22;24349;53.720;10.014;2023-06-14T02:24:42;13.40;99.90
38582;DHT22;24349;53.720;10.014;2023-06-14T02:27:08;13.40;99.90
38582;DHT22;24349;53.720;10.014;2023-06-14T02:29:36;13.40;99.90
38582;DHT22;24349;53.720;10.014;2023-06-14T02:32:01;13.30;99.90
38582;DHT22;24349;53.720;10.014;2023-06-14T02:34:27;13.30;99.90
38582;DHT22;24349;53.720;10.014;2023-06-14T02:36:52;13.30;99.90
38582;DHT22;24349;53.720;10.014;2023-06-14T02:39:18;13.20;99.90
38582;DHT22;24349;53.720;10.014;2023-06-14T02:41:46;13.20;99.90
38582;DHT22;24349;53.720;10.014;2023-06-14T02:44:13;13.20;99.90
38582;DHT22;24349;53.720;10.014;2023-06-14T02:46:39;13.20;99.90
38582;DHT22;24349;53.720;10.014;2023-06-14T02:49:05;13.20;99.90
38582;DHT22;24349;53.720;10.014;2023-06-14T02:51:30;13.20;99.90
38582;DHT22;24349;53.720;10.014;2023-06-14T02:53:56;13.30;99.90
38582;DHT22;24349;53.720;10.014;2023-06-14T02:56:22;13.30;99.90
38582;DHT22;24349;53.720;10.014;2023-06-14T02:58:48;13.30;99.90
38582;DHT22;24349;53.720;10.014;2023-06-14T03:01:14;13.20;99.90
38582;DHT22;24349;53.720;10.014;2023-06-14T03:03:40;13.20;99.90
38582;DHT22;24349;53.720;10.014;2023-06-14T03:06:05;13.20;99.90
38582;DHT22;24349;53.720;10.014;2023-06-14T03:08:31;13.20;99.90
38582;DHT22;24349;53.720;10.014;2023-06-14T03:11:04;13.20;99.90
38582;DHT22;24349;53.720;10.014;2023-06-14T03:13:34;13.30;99.90
38582;DHT22;24349;53.720;10.014;2023-06-14T03:16:00;13.20;99.90
38582;DHT22;24349;53.720;10.014;2023-06-14T03:18:31;13.30;99.90
38582;DHT22;24349;53.720;10.014;2023-06-14T03:21:01;13.30;99.90
38582;DHT22;24349;53.720;10.014;2023-06-14T03:23:28;13.20;99.90
38582;DHT22;24349;53.720;10.014;2023-06-14T03:25:53;13.20;99.90
38582;DHT22;24349;53.720;10.014;2023-06-14T03:28:19;13.20;99.90
38582;DHT22;24349;53.720;10.014;2023-06-14T03:30:45;13.20;99.90
38582;DHT22;24349;53.720;10.014;2023-06-14T03:33:11;13.10;99.90
38582;DHT22;24349;53.720;10.014;2023-06-14T03:35:36;13.20;99.90
38582;DHT22;24349;53.720;10.014;2023-06-14T03:38:02;13.10;99.90
38582;DHT22;24349;53.720;10.014;2023-06-14T03:40:29;13.20;99.90
38582;DHT22;24349;53.720;10.014;2023-06-14T03:42:55;13.30;99.90
38582;DHT22;24349;53.720;10.014;2023-06-14T03:45:21;13.30;99.90
38582;DHT22;24349;53.720;10.014;2023-06-14T03:47:47;13.40;99.90
38582;DHT22;24349;53.720;10.014;2023-06-14T03:50:13;13.30;99.90
38582;DHT22;24349;53.720;10.014;2023-06-14T03:52:39;13.50;99.90
38582;DHT22;24349;53.720;10.014;2023-06-14T03:55:05;13.50;99.90
38582;DHT22;24349;53.720;10.014;2023-06-14T03:57:31;13.50;99.90
38582;DHT22;24349;53.720;10.014;2023-06-14T03:59:57;13.60;99.90
38582;DHT22;24349;53.720;10.014;2023-06-14T04:02:22;13.70;99.90
38582;DHT22;24349;53.720;10.014;2023-06-14T04:04:48;13.70;99.90
38582;DHT22;24349;53.720;10.014;2023-06-14T04:07:17;13.70;99.90
38582;DHT22;24349;53.720;10.014;2023-06-14T04:09:46;13.70;99.90
38582;DHT22;24349;53.720;10.014;2023-06-14T04:12:12;13.80;99.90
38582;DHT22;24349;53.720;10.014;2023-06-14T04:14:40;13.90;99.90
38582;DHT22;24349;53.720;10.014;2023-06-14T04:17:06;13.90;99.90
38582;DHT22;24349;53.720;10.014;2023-06-14T04:19:32;13.90;99.90
38582;DHT22;24349;53.720;10.014;2023-06-14T04:21:58;14.00;99.90
38582;DHT22;24349;53.720;10.014;2023-06-14T04:24:26;14.10;99.90
38582;DHT22;24349;53.720;10.014;2023-06-14T04:26:54;14.10;99.90
38582;DHT22;24349;53.720;10.014;2023-06-14T04:29:20;14.10;99.90
38582;DHT22;24349;53.720;10.014;2023-06-14T04:31:46;14.20;99.90
38582;DHT22;24349;53.720;10.014;2023-06-14T04:34:12;14.30;99.90
38582;DHT22;24349;53.720;10.014;2023-06-14T04:36:42;14.40;99.90
38582;DHT22;24349;53.720;10.014;2023-06-14T04:39:17;14.50;99.90
38582;DHT22;24349;53.720;10.014;2023-06-14T04:41:44;14.70;99.90
38582;DHT22;24349;53.720;10.014;2023-06-14T04:44:10;14.80;99.90
38582;DHT22;24349;53.720;10.014;2023-06-14T04:46:36;14.90;99.90
38582;DHT22;24349;53.720;10.014;2023-06-14T04:49:12;14.90;99.90
38582;DHT22;24349;53.720;10.014;2023-06-14T04:51:40;15.10;99.90
38582;DHT22;24349;53.720;10.014;2023-06-14T04:54:06;15.10;99.90
38582;DHT22;24349;53.720;10.014;2023-06-14T04:56:38;15.30;99.90
38582;DHT22;24349;53.720;10.014;2023-06-14T04:59:03;15.40;99.90
38582;DHT22;24349;53.720;10.014;2023-06-14T05:01:32;15.50;99.90
38582;DHT22;24349;53.720;10.014;2023-06-14T05:03:58;15.70;99.90
38582;DHT22;24349;53.720;10.014;2023-06-14T05:06:24;15.80;99.90
38582;DHT22;24349;53.720;10.014;2023-06-14T05:08:50;15.80;99.90
38582;DHT22;24349;53.720;10.014;2023-06-14T05:11:16;15.90;99.90
38582;DHT22;24349;53.720;10.014;2023-06-14T05:13:42;16.00;99.90
38582;DHT22;24349;53.720;10.014;2023-06-14T05:16:10;16.10;99.90
38582;DHT22;24349;53.720;10.014;2023-06-14T05:18:39;16.10;99.90
38582;DHT22;24349;53.720;10.014;2023-06-14T05:21:05;16.20;99.90
38582;DHT22;24349;53.720;10.014;2023-06-14T05:23:31;16.40;99.90
38582;DHT22;24349;53.720;10.014;2023-06-14T05:25:57;16.70;99.90
38582;DHT22;24349;53.720;10.014;2023-06-14T05:28:23;16.80;99.90
38582;DHT22;24349;53.720;10.014;2023-06-14T05:30:48;16.80;99.90
38582;DHT22;24349;53.720;10.014;2023-06-14T05:33:14;17.10;99.90
38582;DHT22;24349;53.720;10.014;2023-06-14T05:35:40;17.40;99.90
38582;DHT22;24349;53.720;10.014;2023-06-14T05:38:05;17.60;99.90
38582;DHT22;24349;53.720;10.014;2023-06-14T05:40:33;17.80;99.90
38582;DHT22;24349;53.720;10.014;2023-06-14T05:42:58;17.90;99.90
38582;DHT22;24349;53.720;10.014;2023-06-14T05:45:24;18.10;99.90
38582;DHT22;24349;53.720;10.014;2023-06-14T05:47:50;18.20;99.90
38582;DHT22;24349;53.720;10.014;2023-06-14T05:50:16;18.50;99.90
38582;DHT22;24349;53.720;10.014;2023-06-14T05:52:41;18.80;99.90
38582;DHT22;24349;53.720;10.014;2023-06-14T05:55:07;18.90;99.90
38582;DHT22;24349;53.720;10.014;2023-06-14T05:57:33;19.10;99.90
38582;DHT22;24349;53.720;10.014;2023-06-14T05:59:58;19.20;99.90
38582;DHT22;24349;53.720;10.014;2023-06-14T06:02:24;19.40;99.90
38582;DHT22;24349;53.720;10.014;2023-06-14T06:04:50;19.50;99.90
38582;DHT22;24349;53.720;10.014;2023-06-14T06:07:15;19.60;99.90
38582;DHT22;24349;53.720;10.014;2023-06-14T06:09:41;19.60;99.90
38582;DHT22;24349;53.720;10.014;2023-06-14T06:12:07;19.80;99.90
38582;DHT22;24349;53.720;10.014;2023-06-14T06:14:33;20.00;99.90
38582;DHT22;24349;53.720;10.014;2023-06-14T06:16:58;20.40;99.90
38582;DHT22;24349;53.720;10.014;2023-06-14T06:19:24;20.80;99.90
38582;DHT22;24349;53.720;10.014;2023-06-14T06:21:50;21.00;99.90
38582;DHT22;24349;53.720;10.014;2023-06-14T06:24:16;21.30;99.90
38582;DHT22;24349;53.720;10.014;2023-06-14T06:26:42;21.40;99.90
38582;DHT22;24349;53.720;10.014;2023-06-14T06:29:07;21.30;99.90
38582;DHT22;24349;53.720;10.014;2023-06-14T06:31:33;21.10;99.90
38582;DHT22;24349;53.720;10.014;2023-06-14T06:33:59;21.30;99.90
38582;DHT22;24349;53.720;10.014;2023-06-14T06:36:24;21.90;99.90
38582;DHT22;24349;53.720;10.014;2023-06-14T06:38:50;22.40;99.90
38582;DHT22;24349;53.720;10.014;2023-06-14T06:41:16;22.50;99.90
38582;DHT22;24349;53.720;10.014;2023-06-14T06:43:42;22.60;1.00
38582;DHT22;24349;53.720;10.014;2023-06-14T06:46:07;23.00;99.90
38582;DHT22;24349;53.720;10.014;2023-06-14T06:48:33;23.30;99.90
38582;DHT22;24349;53.720;10.014;2023-06-14T06:50:58;23.40;99.90
38582;DHT22;24349;53.720;10.014;2023-06-14T06:53:24;23.30;46.50
38582;DHT22;24349;53.720;10.014;2023-06-14T06:55:50;23.40;99.90
38582;DHT22;24349;53.720;10.014;2023-06-14T06:58:16;23.80;99.90
38582;DHT22;24349;53.720;10.014;2023-06-14T07:00:41;23.70;1.00
38582;DHT22;24349;53.720;10.014;2023-06-14T07:03:07;23.90;3.70
38582;DHT22;24349;53.720;10.014;2023-06-14T07:05:33;24.20;99.90
38582;DHT22;24349;53.720;10.014;2023-06-14T07:08:00;23.80;99.90
38582;DHT22;24349;53.720;10.014;2023-06-14T07:10:25;24.20;99.90
38582;DHT22;24349;53.720;10.014;2023-06-14T07:12:51;24.50;15.20
38582;DHT22;24349;53.720;10.014;2023-06-14T07:15:17;24.60;65.00
38582;DHT22;24349;53.720;10.014;2023-06-14T07:17:42;25.00;1.00
38582;DHT22;24349;53.720;10.014;2023-06-14T07:20:09;25.00;99.90
38582;DHT22;24349;53.720;10.014;2023-06-14T07:22:40;25.20;99.90
38582;DHT22;24349;53.720;10.014;2023-06-14T07:25:07;25.40;99.90
38582;DHT22;24349;53.720;10.014;2023-06-14T07:27:34;25.50;99.90
38582;DHT22;24349;53.720;10.014;2023-06-14T07:29:59;25.40;99.90
38582;DHT22;24349;53.720;10.014;2023-06-14T07:32:25;25.60;99.90
38582;DHT22;24349;53.720;10.014;2023-06-14T07:34:50;25.90;99.90
38582;DHT22;24349;53.720;10.014;2023-06-14T07:37:16;26.10;99.90
38582;DHT22;24349;53.720;10.014;2023-06-14T07:39:42;25.50;99.90
38582;DHT22;24349;53.720;10.014;2023-06-14T07:42:07;25.90;99.90
38582;DHT22;24349;53.720;10.014;2023-06-14T07:44:33;26.00;99.90
38582;DHT22;24349;53.720;10.014;2023-06-14T07:46:59;26.40;99.90
38582;DHT22;24349;53.720;10.014;2023-06-14T07:49:25;26.60;99.90
38582;DHT22;24349;53.720;10.014;2023-06-14T07:51:51;26.80;96.20
38582;DHT22;24349;53.720;10.014;2023-06-14T07:54:17;27.00;69.70
38582;DHT22;24349;53.720;10.014;2023-06-14T07:56:43;26.60;36.10
38582;DHT22;24349;53.720;10.014;2023-06-14T07:59:08;25.60;53.10
38582;DHT22;24349;53.720;10.014;2023-06-14T08:01:34;25.50;93.00
38582;DHT22;24349;53.720;10.014;2023-06-14T08:04:00;25.50;65.50
38582;DHT22;24349;53.720;10.014;2023-06-14T08:06:26;25.10;91.60
38582;DHT22;24349;53.720;10.014;2023-06-14T08:08:52;24.90;97.20
38582;DHT22;24349;53.720;10.014;2023-06-14T08:11:18;24.90;99.90
38582;DHT22;24349;53.720;10.014;2023-06-14T08:13:43;24.90;99.90
38582;DHT22;24349;53.720;10.014;2023-06-14T08:16:09;24.70;99.90
38582;DHT22;24349;53.720;10.014;2023-06-14T08:18:36;24.90;99.90
38582;DHT22;24349;53.720;10.014;2023-06-14T08:21:02;25.10;99.90
38582;DHT22;24349;53.720;10.014;2023-06-14T08:23:28;25.40;99.90
38582;DHT22;24349;53.720;10.014;2023-06-14T08:25:54;25.50;99.90
38582;DHT22;24349;53.720;10.014;2023-06-14T08:28:20;25.40;99.90
38582;DHT22;24349;53.720;10.014;2023-06-14T08:30:45;25.00;98.50
38582;DHT22;24349;53.720;10.014;2023-06-14T08:33:11;24.90;99.90
38582;DHT22;24349;53.720;10.014;2023-06-14T08:35:37;25.00;99.90
38582;DHT22;24349;53.720;10.014;2023-06-14T08:38:04;25.20;99.90
38582;DHT22;24349;53.720;10.014;2023-06-14T08:40:30;25.10;99.90
38582;DHT22;24349;53.720;10.014;2023-06-14T08:42:56;25.10;94.20
38582;DHT22;24349;53.720;10.014;2023-06-14T08:45:23;25.40;99.90
38582;DHT22;24349;53.720;10.014;2023-06-14T08:47:50;25.30;99.90
38582;DHT22;24349;53.720;10.014;2023-06-14T08:50:24;25.50;92.60
38582;DHT22;24349;53.720;10.014;2023-06-14T08:52:56;25.10;90.20
38582;DHT22;24349;53.720;10.014;2023-06-14T08:55:23;25.30;87.90
38582;DHT22;24349;53.720;10.014;2023-06-14T08:57:54;25.00;56.80
38582;DHT22;24349;53.720;10.014;2023-06-14T09:00:22;25.10;67.60
38582;DHT22;24349;53.720;10.014;2023-06-14T09:02:49;25.40;76.70
38582;DHT22;24349;53.720;10.014;2023-06-14T09:05:24;25.50;74.90
38582;DHT22;24349;53.720;10.014;2023-06-14T09:07:50;25.60;82.70
38582;DHT22;24349;53.720;10.014;2023-06-14T09:10:16;25.40;63.40
38582;DHT22;24349;53.720;10.014;2023-06-14T09:12:42;25.60;76.50
38582;DHT22;24349;53.720;10.014;2023-06-14T09:15:09;25.50;25.10
38582;DHT22;24349;53.720;10.014;2023-06-14T09:17:35;25.30;23.60
38582;DHT22;24349;53.720;10.014;2023-06-14T09:20:05;25.10;48.50
38582;DHT22;24349;53.720;10.014;2023-06-14T09:22:32;25.50;88.80
38582;DHT22;24349;53.720;10.014;2023-06-14T09:24:59;25.80;34.80
38582;DHT22;24349;53.720;10.014;2023-06-14T09:27:28;25.80;33.10
38582;DHT22;24349;53.720;10.014;2023-06-14T09:29:54;25.60;20.10
38582;DHT22;24349;53.720;10.014;2023-06-14T09:32:21;25.50;22.40
38582;DHT22;24349;53.720;10.014;2023-06-14T09:34:47;25.70;15.40
38582;DHT22;24349;53.720;10.014;2023-06-14T09:37:13;26.00;47.60
38582;DHT22;24349;53.720;10.014;2023-06-14T09:39:51;26.50;10.10
38582;DHT22;24349;53.720;10.014;2023-06-14T09:42:17;26.60;7.70
38582;DHT22;24349;53.720;10.014;2023-06-14T09:44:49;26.80;1.00
38582;DHT22;24349;53.720;10.014;2023-06-14T09:47:15;26.60;1.00
38582;DHT22;24349;53.720;10.014;2023-06-14T09:49:41;27.00;2.50
38582;DHT22;24349;53.720;10.014;2023-06-14T09:52:16;27.30;1.00
38582;DHT22;24349;53.720;10.014;2023-06-14T09:54:43;26.90;1.00
38582;DHT22;24349;53.720;10.014;2023-06-14T09:57:16;26.60;1.00
38582;DHT22;24349;53.720;10.014;2023-06-14T09:59:46;26.50;1.00
38582;DHT22;24349;53.720;10.014;2023-06-14T10:04:48;26.50;1.00
38582;DHT22;24349;53.720;10.014;2023-06-14T10:07:19;25.70;1.00
38582;DHT22;24349;53.720;10.014;2023-06-14T10:09:46;26.30;1.00
38582;DHT22;24349;53.720;10.014;2023-06-14T10:12:16;26.80;1.00
38582;DHT22;24349;53.720;10.014;2023-06-14T10:14:47;27.50;1.00
38582;DHT22;24349;53.720;10.014;2023-06-14T10:17:22;27.70;1.00
38582;DHT22;24349;53.720;10.014;2023-06-14T10:22:47;28.30;1.00
38582;DHT22;24349;53.720;10.014;2023-06-14T10:25:27;28.50;1.00
38582;DHT22;24349;53.720;10.014;2023-06-14T10:28:23;28.00;1.00
38582;DHT22;24349;53.720;10.014;2023-06-14T10:33:55;28.20;1.00
38582;DHT22;24349;53.720;10.014;2023-06-14T10:36:31;27.80;1.00
38582;DHT22;24349;53.720;10.014;2023-06-14T10:39:14;27.60;1.00
38582;DHT22;24349;53.720;10.014;2023-06-14T10:41:41;28.10;1.00
38582;DHT22;24349;53.720;10.014;2023-06-14T10:46:49;28.70;1.00
38582;DHT22;24349;53.720;10.014;2023-06-14T10:49:18;27.60;1.00
38582;DHT22;24349;53.720;10.014;2023-06-14T10:51:45;26.90;1.00
38582;DHT22;24349;53.720;10.014;2023-06-14T10:54:14;27.10;1.00
38582;DHT22;24349;53.720;10.014;2023-06-14T10:56:50;27.60;1.00
38582;DHT22;24349;53.720;10.014;2023-06-14T10:59:18;27.70;1.00
38582;DHT22;24349;53.720;10.014;2023-06-14T11:04:20;28.10;1.00
38582;DHT22;24349;53.720;10.014;2023-06-14T11:06:50;28.50;1.00
38582;DHT22;24349;53.720;10.014;2023-06-14T11:12:04;28.00;1.00
38582;DHT22;24349;53.720;10.014;2023-06-14T11:14:31;27.50;1.00
38582;DHT22;24349;53.720;10.014;2023-06-14T11:16:56;27.20;1.00
38582;DHT22;24349;53.720;10.014;2023-06-14T11:19:22;27.70;1.00
38582;DHT22;24349;53.720;10.014;2023-06-14T11:21:50;28.40;1.00
38582;DHT22;24349;53.720;10.014;2023-06-14T11:24:16;28.60;1.00
38582;DHT22;24349;53.720;10.014;2023-06-14T11:26:42;28.60;1.00
38582;DHT22;24349;53.720;10.014;2023-06-14T11:29:08;28.60;1.00
38582;DHT22;24349;53.720;10.014;2023-06-14T11:31:34;29.00;1.00
38582;DHT22;24349;53.720;10.014;2023-06-14T11:34:00;29.00;1.00
38582;DHT22;24349;53.720;10.014;2023-06-14T11:36:27;29.10;1.00
38582;DHT22;24349;53.720;10.014;2023-06-14T11:39:02;28.50;1.00
38582;DHT22;24349;53.720;10.014;2023-06-14T11:41:40;28.70;1.00
38582;DHT22;24349;53.720;10.014;2023-06-14T11:44:06;28.90;1.00
38582;DHT22;24349;53.720;10.014;2023-06-14T11:46:32;28.60;1.00
38582;DHT22;24349;53.720;10.014;2023-06-14T11:48:58;28.30;1.00
38582;DHT22;24349;53.720;10.014;2023-06-14T11:51:24;28.10;1.00
38582;DHT22;24349;53.720;10.014;2023-06-14T11:53:50;27.60;1.00
38582;DHT22;24349;53.720;10.014;2023-06-14T11:56:16;27.30;1.00
38582;DHT22;24349;53.720;10.014;2023-06-14T11:58:45;27.70;1.00
38582;DHT22;24349;53.720;10.014;2023-06-14T12:01:16;28.50;1.00
38582;DHT22;24349;53.720;10.014;2023-06-14T12:03:48;29.00;1.00
38582;DHT22;24349;53.720;10.014;2023-06-14T12:06:14;28.50;1.00
38582;DHT22;24349;53.720;10.014;2023-06-14T12:08:40;28.50;1.00
38582;DHT22;24349;53.720;10.014;2023-06-14T12:11:12;28.60;1.00
38582;DHT22;24349;53.720;10.014;2023-06-14T12:13:39;29.00;1.00
38582;DHT22;24349;53.720;10.014;2023-06-14T12:16:09;29.20;1.00
38582;DHT22;24349;53.720;10.014;2023-06-14T12:18:36;29.10;1.00
38582;DHT22;24349;53.720;10.014;2023-06-14T12:21:06;29.10;1.00
38582;DHT22;24349;53.720;10.014;2023-06-14T12:23:48;29.50;1.00
38582;DHT22;24349;53.720;10.014;2023-06-14T12:26:19;29.60;1.00
38582;DHT22;24349;53.720;10.014;2023-06-14T12:28:45;29.80;1.00
38582;DHT22;24349;53.720;10.014;2023-06-14T12:31:12;29.90;1.00
38582;DHT22;24349;53.720;10.014;2023-06-14T12:33:38;29.90;1.00
38582;DHT22;24349;53.720;10.014;2023-06-14T12:36:06;29.60;1.00
38582;DHT22;24349;53.720;10.014;2023-06-14T12:38:33;29.30;1.00
38582;DHT22;24349;53.720;10.014;2023-06-14T12:40:59;29.30;1.00
38582;DHT22;24349;53.720;10.014;2023-06-14T12:43:24;28.60;1.00
38582;DHT22;24349;53.720;10.014;2023-06-14T12:45:50;28.70;1.00
38582;DHT22;24349;53.720;10.014;2023-06-14T12:48:16;28.80;1.00
38582;DHT22;24349;53.720;10.014;2023-06-14T12:50:41;29.30;1.00
38582;DHT22;24349;53.720;10.014;2023-06-14T12:53:07;29.50;1.00
38582;DHT22;24349;53.720;10.014;2023-06-14T12:55:33;30.00;1.00
38582;DHT22;24349;53.720;10.014;2023-06-14T12:57:58;30.40;1.00
38582;DHT22;24349;53.720;10.014;2023-06-14T13:00:24;30.10;1.00
38582;DHT22;24349;53.720;10.014;2023-06-14T13:02:55;29.70;1.00
38582;DHT22;24349;53.720;10.014;2023-06-14T13:05:20;29.90;1.00
38582;DHT22;24349;53.720;10.014;2023-06-14T13:07:46;30.00;1.00
38582;DHT22;24349;53.720;10.014;2023-06-14T13:10:12;29.30;1.00
38582;DHT22;24349;53.720;10.014;2023-06-14T13:12:37;29.00;1.00
38582;DHT22;24349;53.720;10.014;2023-06-14T13:15:03;29.10;1.00
38582;DHT22;24349;53.720;10.014;2023-06-14T13:17:29;28.80;1.00
38582;DHT22;24349;53.720;10.014;2023-06-14T13:19:55;29.10;1.00
38582;DHT22;24349;53.720;10.014;2023-06-14T13:22:21;29.00;1.00
38582;DHT22;24349;53.720;10.014;2023-06-14T13:24:47;28.80;1.00
38582;DHT22;24349;53.720;10.014;2023-06-14T13:27:12;29.20;1.00
38582;DHT22;24349;53.720;10.014;2023-06-14T13:29:40;29.30;1.00
38582;DHT22;24349;53.720;10.014;2023-06-14T13:32:05;28.80;1.00
38582;DHT22;24349;53.720;10.014;2023-06-14T13:34:31;28.40;1.00
38582;DHT22;24349;53.720;10.014;2023-06-14T13:36:57;28.60;1.00
38582;DHT22;24349;53.720;10.014;2023-06-14T13:39:25;28.70;1.00
38582;DHT22;24349;53.720;10.014;2023-06-14T13:41:50;28.70;1.00
38582;DHT22;24349;53.720;10.014;2023-06-14T13:44:16;28.70;1.00
38582;DHT22;24349;53.720;10.014;2023-06-14T13:46:44;29.00;1.00
38582;DHT22;24349;53.720;10.014;2023-06-14T13:49:10;29.10;1.00
38582;DHT22;24349;53.720;10.014;2023-06-14T13:51:37;28.80;1.00
38582;DHT22;24349;53.720;10.014;2023-06-14T13:54:03;28.80;1.00
38582;DHT22;24349;53.720;10.014;2023-06-14T13:56:28;28.90;1.00
38582;DHT22;24349;53.720;10.014;2023-06-14T13:58:55;29.00;1.00
38582;DHT22;24349;53.720;10.014;2023-06-14T14:01:21;29.10;1.00
38582;DHT22;24349;53.720;10.014;2023-06-14T14:03:48;29.00;1.00
38582;DHT22;24349;53.720;10.014;2023-06-14T14:06:15;29.20;1.00
38582;DHT22;24349;53.720;10.014;2023-06-14T14:08:41;29.20;1.00
38582;DHT22;24349;53.720;10.014;2023-06-14T14:11:08;29.20;1.00
38582;DHT22;24349;53.720;10.014;2023-06-14T14:13:34;29.00;1.00
38582;DHT22;24349;53.720;10.014;2023-06-14T14:16:02;29.00;1.00
38582;DHT22;24349;53.720;10.014;2023-06-14T14:18:28;28.60;1.00
38582;DHT22;24349;53.720;10.014;2023-06-14T14:20:54;28.50;1.00
38582;DHT22;24349;53.720;10.014;2023-06-14T14:23:19;28.40;1.00
38582;DHT22;24349;53.720;10.014;2023-06-14T14:25:46;28.40;1.00
38582;DHT22;24349;53.720;10.014;2023-06-14T14:28:11;28.40;1.00
38582;DHT22;24349;53.720;10.014;2023-06-14T14:30:39;28.50;1.00
38582;DHT22;24349;53.720;10.014;2023-06-14T14:33:05;27.90;1.00
38582;DHT22;24349;53.720;10.014;2023-06-14T14:35:32;28.00;1.00
38582;DHT22;24349;53.720;10.014;2023-06-14T14:37:58;27.90;1.00
38582;DHT22;24349;53.720;10.014;2023-06-14T14:40:24;27.80;1.00
38582;DHT22;24349;53.720;10.014;2023-06-14T14:42:50;27.90;1.00
38582;DHT22;24349;53.720;10.014;2023-06-14T14:45:15;28.00;1.00
38582;DHT22;24349;53.720;10.014;2023-06-14T14:47:41;28.00;1.00
38582;DHT22;24349;53.720;10.014;2023-06-14T14:50:07;28.10;1.00
38582;DHT22;24349;53.720;10.014;2023-06-14T14:52:35;27.80;1.00
38582;DHT22;24349;53.720;10.014;2023-06-14T14:55:00;27.70;1.00
38582;DHT22;24349;53.720;10.014;2023-06-14T14:57:26;27.80;1.00
38582;DHT22;24349;53.720;10.014;2023-06-14T14:59:52;27.80;1.00
38582;DHT22;24349;53.720;10.014;2023-06-14T15:02:18;27.80;1.00
38582;DHT22;24349;53.720;10.014;2023-06-14T15:04:44;27.60;1.00
38582;DHT22;24349;53.720;10.014;2023-06-14T15:07:10;27.60;1.00
38582;DHT22;24349;53.720;10.014;2023-06-14T15:09:36;27.50;1.00
38582;DHT22;24349;53.720;10.014;2023-06-14T15:12:01;27.50;1.00
38582;DHT22;24349;53.720;10.014;2023-06-14T15:14:28;27.00;1.00
38582;DHT22;24349;53.720;10.014;2023-06-14T15:16:53;27.20;1.00
38582;DHT22;24349;53.720;10.014;2023-06-14T15:19:19;27.30;1.00
38582;DHT22;24349;53.720;10.014;2023-06-14T15:21:45;27.30;1.00
38582;DHT22;24349;53.720;10.014;2023-06-14T15:24:10;27.20;1.00
38582;DHT22;24349;53.720;10.014;2023-06-14T15:26:36;27.10;1.00
38582;DHT22;24349;53.720;10.014;2023-06-14T15:29:02;26.70;1.00
38582;DHT22;24349;53.720;10.014;2023-06-14T15:31:27;26.20;1.00
38582;DHT22;24349;53.720;10.014;2023-06-14T15:33:54;26.40;1.00
38582;DHT22;24349;53.720;10.014;2023-06-14T15:36:19;26.40;1.00
38582;DHT22;24349;53.720;10.014;2023-06-14T15:38:45;26.40;1.00
38582;DHT22;24349;53.720;10.014;2023-06-14T15:41:11;26.40;1.00